sensor_id;sensor_type;location;lat;lon;timestamp;P1;durP1;ratioP1;P2;durP2;ratioP2
78860;SDS011;68211;45.774;15.892;2023-10-09T00:00:20;7.40;;;1.98;;
78860;SDS011;68211;45.774;15.892;2023-10-09T00:02:46;3.92;;;2.22;;
78860;SDS011;68211;45.774;15.892;2023-10-09T00:05:13;3.92;;;2.20;;
78860;SDS011;68211;45.774;15.892;2023-10-09T00:07:40;3.13;;;1.92;;
78860;SDS011;68211;45.774;15.892;2023-10-09T00:10:06;3.33;;;2.08;;
78860;SDS011;68211;45.774;15.892;2023-10-09T00:12:33;6.63;;;1.90;;
78860;SDS011;68211;45.774;15.892;2023-10-09T00:14:59;3.55;;;1.85;;
78860;SDS011;68211;45.774;15.892;2023-10-09T00:17:27;4.68;;;1.90;;
78860;SDS011;68211;45.774;15.892;2023-10-09T00:19:54;6.50;;;2.10;;
78860;SDS011;68211;45.774;15.892;2023-10-09T00:22:20;4.80;;;1.98;;
78860;SDS011;68211;45.774;15.892;2023-10-09T00:24:47;6.20;;;1.85;;
78860;SDS011;68211;45.774;15.892;2023-10-09T00:27:13;2.70;;;1.80;;
78860;SDS011;68211;45.774;15.892;2023-10-09T00:29:40;4.32;;;1.83;;
78860;SDS011;68211;45.774;15.892;2023-10-09T00:32:07;5.38;;;2.08;;
78860;SDS011;68211;45.774;15.892;2023-10-09T00:34:34;5.03;;;1.73;;
78860;SDS011;68211;45.774;15.892;2023-10-09T00:37:01;4.38;;;1.73;;
78860;SDS011;68211;45.774;15.892;2023-10-09T00:39:27;3.28;;;1.63;;
78860;SDS011;68211;45.774;15.892;2023-10-09T00:41:54;2.95;;;1.60;;
78860;SDS011;68211;45.774;15.892;2023-10-09T00:44:21;4.72;;;1.88;;
78860;SDS011;68211;45.774;15.892;2023-10-09T00:46:47;2.20;;;1.98;;
78860;SDS011;68211;45.774;15.892;2023-10-09T00:49:14;5.70;;;2.08;;
78860;SDS011;68211;45.774;15.892;2023-10-09T00:51:42;7.38;;;2.28;;
78860;SDS011;68211;45.774;15.892;2023-10-09T00:54:12;3.20;;;1.85;;
78860;SDS011;68211;45.774;15.892;2023-10-09T00:56:39;2.75;;;2.05;;
78860;SDS011;68211;45.774;15.892;2023-10-09T00:59:06;3.42;;;2.10;;
78860;SDS011;68211;45.774;15.892;2023-10-09T01:01:36;12.27;;;2.45;;
78860;SDS011;68211;45.774;15.892;2023-10-09T01:04:03;7.40;;;2.28;;
78860;SDS011;68211;45.774;15.892;2023-10-09T01:06:32;5.00;;;2.30;;
78860;SDS011;68211;45.774;15.892;2023-10-09T01:09:00;6.23;;;1.97;;
78860;SDS011;68211;45.774;15.892;2023-10-09T01:11:26;6.82;;;2.20;;
78860;SDS011;68211;45.774;15.892;2023-10-09T01:13:53;5.40;;;2.03;;
78860;SDS011;68211;45.774;15.892;2023-10-09T01:16:20;9.43;;;2.45;;
78860;SDS011;68211;45.774;15.892;2023-10-09T01:18:48;8.88;;;2.40;;
78860;SDS011;68211;45.774;15.892;2023-10-09T01:21:15;7.22;;;2.35;;
78860;SDS011;68211;45.774;15.892;2023-10-09T01:23:44;5.63;;;2.47;;
78860;SDS011;68211;45.774;15.892;2023-10-09T01:26:10;6.75;;;2.40;;
78860;SDS011;68211;45.774;15.892;2023-10-09T01:28:37;4.63;;;2.05;;
78860;SDS011;68211;45.774;15.892;2023-10-09T01:31:03;8.35;;;2.50;;
78860;SDS011;68211;45.774;15.892;2023-10-09T01:33:30;9.63;;;2.90;;
78860;SDS011;68211;45.774;15.892;2023-10-09T01:35:57;8.85;;;2.28;;
78860;SDS011;68211;45.774;15.892;2023-10-09T01:38:23;5.88;;;2.35;;
78860;SDS011;68211;45.774;15.892;2023-10-09T01:40:51;8.73;;;2.75;;
78860;SDS011;68211;45.774;15.892;2023-10-09T01:43:18;6.20;;;2.83;;
78860;SDS011;68211;45.774;15.892;2023-10-09T01:45:44;6.63;;;3.13;;
78860;SDS011;68211;45.774;15.892;2023-10-09T01:48:11;4.95;;;2.97;;
78860;SDS011;68211;45.774;15.892;2023-10-09T01:50:38;8.13;;;3.28;;
78860;SDS011;68211;45.774;15.892;2023-10-09T01:53:06;8.43;;;2.93;;
78860;SDS011;68211;45.774;15.892;2023-10-09T01:55:33;5.25;;;2.67;;
78860;SDS011;68211;45.774;15.892;2023-10-09T01:58:01;4.43;;;2.70;;
78860;SDS011;68211;45.774;15.892;2023-10-09T02:00:27;5.57;;;2.60;;
78860;SDS011;68211;45.774;15.892;2023-10-09T02:02:54;4.45;;;2.55;;
78860;SDS011;68211;45.774;15.892;2023-10-09T02:05:20;4.40;;;2.47;;
78860;SDS011;68211;45.774;15.892;2023-10-09T02:07:49;6.07;;;2.38;;
78860;SDS011;68211;45.774;15.892;2023-10-09T02:10:16;4.40;;;2.53;;
78860;SDS011;68211;45.774;15.892;2023-10-09T02:12:42;3.22;;;2.40;;
78860;SDS011;68211;45.774;15.892;2023-10-09T02:15:12;6.50;;;2.65;;
78860;SDS011;68211;45.774;15.892;2023-10-09T02:17:39;7.40;;;2.65;;
78860;SDS011;68211;45.774;15.892;2023-10-09T02:20:06;10.85;;;2.33;;
78860;SDS011;68211;45.774;15.892;2023-10-09T02:22:33;6.35;;;2.33;;
78860;SDS011;68211;45.774;15.892;2023-10-09T02:25:02;5.40;;;2.30;;
78860;SDS011;68211;45.774;15.892;2023-10-09T02:27:29;6.30;;;2.33;;
78860;SDS011;68211;45.774;15.892;2023-10-09T02:29:55;4.55;;;2.20;;
78860;SDS011;68211;45.774;15.892;2023-10-09T02:32:23;7.88;;;2.30;;
78860;SDS011;68211;45.774;15.892;2023-10-09T02:34:50;8.90;;;2.53;;
78860;SDS011;68211;45.774;15.892;2023-10-09T02:37:16;7.90;;;2.40;;
78860;SDS011;68211;45.774;15.892;2023-10-09T02:39:43;4.00;;;2.58;;
78860;SDS011;68211;45.774;15.892;2023-10-09T02:42:09;13.05;;;2.85;;
78860;SDS011;68211;45.774;15.892;2023-10-09T02:44:36;5.60;;;2.45;;
78860;SDS011;68211;45.774;15.892;2023-10-09T02:47:03;5.95;;;1.92;;
78860;SDS011;68211;45.774;15.892;2023-10-09T02:49:33;5.93;;;2.22;;
78860;SDS011;68211;45.774;15.892;2023-10-09T02:51:59;6.97;;;2.20;;
78860;SDS011;68211;45.774;15.892;2023-10-09T02:54:26;5.50;;;2.65;;
78860;SDS011;68211;45.774;15.892;2023-10-09T02:56:52;6.68;;;2.53;;
78860;SDS011;68211;45.774;15.892;2023-10-09T02:59:19;9.00;;;2.60;;
78860;SDS011;68211;45.774;15.892;2023-10-09T03:01:45;9.05;;;2.90;;
78860;SDS011;68211;45.774;15.892;2023-10-09T03:04:12;12.05;;;3.08;;
78860;SDS011;68211;45.774;15.892;2023-10-09T03:06:40;6.13;;;2.53;;
78860;SDS011;68211;45.774;15.892;2023-10-09T03:09:07;10.73;;;2.60;;
78860;SDS011;68211;45.774;15.892;2023-10-09T03:11:34;5.32;;;2.42;;
78860;SDS011;68211;45.774;15.892;2023-10-09T03:14:00;7.18;;;2.70;;
78860;SDS011;68211;45.774;15.892;2023-10-09T03:16:27;8.25;;;2.38;;
78860;SDS011;68211;45.774;15.892;2023-10-09T03:18:53;7.25;;;2.65;;
78860;SDS011;68211;45.774;15.892;2023-10-09T03:21:20;13.02;;;3.15;;
78860;SDS011;68211;45.774;15.892;2023-10-09T03:23:51;22.65;;;3.08;;
78860;SDS011;68211;45.774;15.892;2023-10-09T03:26:17;5.57;;;2.45;;
78860;SDS011;68211;45.774;15.892;2023-10-09T03:28:48;7.93;;;2.55;;
78860;SDS011;68211;45.774;15.892;2023-10-09T03:31:14;11.23;;;2.60;;
78860;SDS011;68211;45.774;15.892;2023-10-09T03:33:41;9.27;;;3.05;;
78860;SDS011;68211;45.774;15.892;2023-10-09T03:36:07;6.75;;;2.78;;
78860;SDS011;68211;45.774;15.892;2023-10-09T03:38:39;12.13;;;2.50;;
78860;SDS011;68211;45.774;15.892;2023-10-09T03:41:07;7.90;;;2.60;;
78860;SDS011;68211;45.774;15.892;2023-10-09T03:43:33;6.05;;;2.78;;
78860;SDS011;68211;45.774;15.892;2023-10-09T03:46:00;10.75;;;2.70;;
78860;SDS011;68211;45.774;15.892;2023-10-09T03:48:26;6.80;;;2.45;;
78860;SDS011;68211;45.774;15.892;2023-10-09T03:50:53;4.45;;;2.63;;
78860;SDS011;68211;45.774;15.892;2023-10-09T03:53:19;5.68;;;2.80;;
78860;SDS011;68211;45.774;15.892;2023-10-09T03:55:46;8.00;;;2.72;;
78860;SDS011;68211;45.774;15.892;2023-10-09T03:58:14;7.32;;;2.80;;
78860;SDS011;68211;45.774;15.892;2023-10-09T04:00:40;7.43;;;2.92;;
78860;SDS011;68211;45.774;15.892;2023-10-09T04:03:07;4.55;;;2.47;;
78860;SDS011;68211;45.774;15.892;2023-10-09T04:05:34;7.13;;;2.63;;
78860;SDS011;68211;45.774;15.892;2023-10-09T04:08:00;8.98;;;3.03;;
78860;SDS011;68211;45.774;15.892;2023-10-09T04:10:27;3.88;;;2.55;;
78860;SDS011;68211;45.774;15.892;2023-10-09T04:12:53;7.03;;;2.80;;
78860;SDS011;68211;45.774;15.892;2023-10-09T04:15:21;4.95;;;2.70;;
78860;SDS011;68211;45.774;15.892;2023-10-09T04:17:47;6.43;;;2.97;;
78860;SDS011;68211;45.774;15.892;2023-10-09T04:20:14;9.80;;;2.95;;
78860;SDS011;68211;45.774;15.892;2023-10-09T04:22:41;16.85;;;2.90;;
78860;SDS011;68211;45.774;15.892;2023-10-09T04:25:07;8.80;;;3.08;;
78860;SDS011;68211;45.774;15.892;2023-10-09T04:27:34;16.10;;;3.50;;
78860;SDS011;68211;45.774;15.892;2023-10-09T04:30:01;9.88;;;2.70;;
78860;SDS011;68211;45.774;15.892;2023-10-09T04:32:29;5.78;;;2.80;;
78860;SDS011;68211;45.774;15.892;2023-10-09T04:34:55;12.05;;;2.95;;
78860;SDS011;68211;45.774;15.892;2023-10-09T04:37:22;6.93;;;2.55;;
78860;SDS011;68211;45.774;15.892;2023-10-09T04:39:48;6.68;;;2.35;;
78860;SDS011;68211;45.774;15.892;2023-10-09T04:42:14;6.25;;;2.42;;
78860;SDS011;68211;45.774;15.892;2023-10-09T04:44:41;6.78;;;2.95;;
78860;SDS011;68211;45.774;15.892;2023-10-09T04:47:08;6.57;;;2.63;;
78860;SDS011;68211;45.774;15.892;2023-10-09T04:49:39;19.38;;;3.72;;
78860;SDS011;68211;45.774;15.892;2023-10-09T04:52:06;4.80;;;3.25;;
78860;SDS011;68211;45.774;15.892;2023-10-09T04:54:32;7.60;;;2.97;;
78860;SDS011;68211;45.774;15.892;2023-10-09T04:56:59;8.73;;;3.42;;
78860;SDS011;68211;45.774;15.892;2023-10-09T04:59:25;6.97;;;2.92;;
78860;SDS011;68211;45.774;15.892;2023-10-09T05:01:52;7.40;;;3.40;;
78860;SDS011;68211;45.774;15.892;2023-10-09T05:04:18;6.28;;;3.03;;
78860;SDS011;68211;45.774;15.892;2023-10-09T05:06:48;8.77;;;2.92;;
78860;SDS011;68211;45.774;15.892;2023-10-09T05:09:14;8.10;;;3.05;;
78860;SDS011;68211;45.774;15.892;2023-10-09T05:11:41;7.97;;;3.42;;
78860;SDS011;68211;45.774;15.892;2023-10-09T05:14:07;7.57;;;3.33;;
78860;SDS011;68211;45.774;15.892;2023-10-09T05:16:34;11.20;;;3.58;;
78860;SDS011;68211;45.774;15.892;2023-10-09T05:19:00;11.77;;;3.55;;
78860;SDS011;68211;45.774;15.892;2023-10-09T05:21:29;9.88;;;3.40;;
78860;SDS011;68211;45.774;15.892;2023-10-09T05:23:58;14.57;;;3.83;;
78860;SDS011;68211;45.774;15.892;2023-10-09T05:26:24;12.90;;;3.63;;
78860;SDS011;68211;45.774;15.892;2023-10-09T05:28:51;8.32;;;3.30;;
78860;SDS011;68211;45.774;15.892;2023-10-09T05:31:17;6.38;;;3.20;;
78860;SDS011;68211;45.774;15.892;2023-10-09T05:33:44;14.05;;;2.92;;
78860;SDS011;68211;45.774;15.892;2023-10-09T05:36:10;22.75;;;3.10;;
78860;SDS011;68211;45.774;15.892;2023-10-09T05:38:36;7.82;;;2.95;;
78860;SDS011;68211;45.774;15.892;2023-10-09T05:41:04;8.35;;;3.08;;
78860;SDS011;68211;45.774;15.892;2023-10-09T05:43:31;5.85;;;3.13;;
78860;SDS011;68211;45.774;15.892;2023-10-09T05:45:57;10.48;;;3.30;;
78860;SDS011;68211;45.774;15.892;2023-10-09T05:48:24;8.20;;;2.60;;
78860;SDS011;68211;45.774;15.892;2023-10-09T05:50:50;7.43;;;3.13;;
78860;SDS011;68211;45.774;15.892;2023-10-09T05:53:17;6.32;;;3.00;;
78860;SDS011;68211;45.774;15.892;2023-10-09T05:55:43;4.53;;;2.72;;
78860;SDS011;68211;45.774;15.892;2023-10-09T05:58:11;6.28;;;2.53;;
78860;SDS011;68211;45.774;15.892;2023-10-09T06:00:38;8.90;;;3.28;;
78860;SDS011;68211;45.774;15.892;2023-10-09T06:03:04;9.02;;;2.45;;
78860;SDS011;68211;45.774;15.892;2023-10-09T06:05:31;13.82;;;3.03;;
78860;SDS011;68211;45.774;15.892;2023-10-09T06:07:57;6.15;;;2.78;;
78860;SDS011;68211;45.774;15.892;2023-10-09T06:10:24;11.70;;;3.38;;
78860;SDS011;68211;45.774;15.892;2023-10-09T06:12:50;20.50;;;3.47;;
78860;SDS011;68211;45.774;15.892;2023-10-09T06:17:47;6.93;;;3.10;;
78860;SDS011;68211;45.774;15.892;2023-10-09T06:20:14;17.00;;;3.13;;
78860;SDS011;68211;45.774;15.892;2023-10-09T06:22:40;13.70;;;3.45;;
78860;SDS011;68211;45.774;15.892;2023-10-09T06:25:07;14.25;;;4.03;;
78860;SDS011;68211;45.774;15.892;2023-10-09T06:27:33;7.70;;;3.08;;
78860;SDS011;68211;45.774;15.892;2023-10-09T06:30:00;17.60;;;4.05;;
78860;SDS011;68211;45.774;15.892;2023-10-09T06:32:27;7.47;;;3.28;;
78860;SDS011;68211;45.774;15.892;2023-10-09T06:34:56;10.02;;;3.58;;
78860;SDS011;68211;45.774;15.892;2023-10-09T06:39:49;16.33;;;5.22;;
78860;SDS011;68211;45.774;15.892;2023-10-09T06:42:15;9.75;;;4.03;;
78860;SDS011;68211;45.774;15.892;2023-10-09T06:44:42;6.43;;;3.40;;
78860;SDS011;68211;45.774;15.892;2023-10-09T06:47:08;9.60;;;3.30;;
78860;SDS011;68211;45.774;15.892;2023-10-09T06:49:35;6.93;;;2.75;;
78860;SDS011;68211;45.774;15.892;2023-10-09T06:52:03;10.00;;;2.97;;
78860;SDS011;68211;45.774;15.892;2023-10-09T06:54:29;6.18;;;3.20;;
78860;SDS011;68211;45.774;15.892;2023-10-09T06:56:56;25.83;;;3.83;;
78860;SDS011;68211;45.774;15.892;2023-10-09T06:59:22;16.58;;;3.40;;
78860;SDS011;68211;45.774;15.892;2023-10-09T07:01:49;17.25;;;3.97;;
78860;SDS011;68211;45.774;15.892;2023-10-09T07:04:15;12.35;;;3.60;;
78860;SDS011;68211;45.774;15.892;2023-10-09T07:06:42;10.00;;;2.97;;
78860;SDS011;68211;45.774;15.892;2023-10-09T07:09:10;9.18;;;3.22;;
78860;SDS011;68211;45.774;15.892;2023-10-09T07:11:37;15.70;;;4.00;;
78860;SDS011;68211;45.774;15.892;2023-10-09T07:14:04;8.85;;;3.45;;
78860;SDS011;68211;45.774;15.892;2023-10-09T07:16:30;12.95;;;4.35;;
78860;SDS011;68211;45.774;15.892;2023-10-09T07:18:57;24.35;;;4.50;;
78860;SDS011;68211;45.774;15.892;2023-10-09T07:21:23;11.98;;;4.25;;
78860;SDS011;68211;45.774;15.892;2023-10-09T07:23:50;11.82;;;3.83;;
78860;SDS011;68211;45.774;15.892;2023-10-09T07:26:18;13.73;;;4.05;;
78860;SDS011;68211;45.774;15.892;2023-10-09T07:28:45;19.15;;;4.10;;
78860;SDS011;68211;45.774;15.892;2023-10-09T07:31:18;15.57;;;3.65;;
78860;SDS011;68211;45.774;15.892;2023-10-09T07:33:44;16.35;;;3.85;;
78860;SDS011;68211;45.774;15.892;2023-10-09T07:36:11;9.75;;;3.72;;
78860;SDS011;68211;45.774;15.892;2023-10-09T07:38:37;11.93;;;3.85;;
78860;SDS011;68211;45.774;15.892;2023-10-09T07:41:04;15.38;;;3.63;;
78860;SDS011;68211;45.774;15.892;2023-10-09T07:43:32;9.25;;;3.83;;
78860;SDS011;68211;45.774;15.892;2023-10-09T07:45:59;10.73;;;3.90;;
78860;SDS011;68211;45.774;15.892;2023-10-09T07:48:28;10.20;;;4.03;;
78860;SDS011;68211;45.774;15.892;2023-10-09T07:53:23;10.07;;;3.55;;
78860;SDS011;68211;45.774;15.892;2023-10-09T07:55:50;9.40;;;4.20;;
78860;SDS011;68211;45.774;15.892;2023-10-09T07:58:16;10.63;;;4.20;;
78860;SDS011;68211;45.774;15.892;2023-10-09T08:00:44;10.68;;;4.18;;
78860;SDS011;68211;45.774;15.892;2023-10-09T08:03:11;10.70;;;3.38;;
78860;SDS011;68211;45.774;15.892;2023-10-09T08:05:37;8.32;;;4.00;;
78860;SDS011;68211;45.774;15.892;2023-10-09T08:08:04;11.02;;;3.65;;
78860;SDS011;68211;45.774;15.892;2023-10-09T08:10:41;6.15;;;3.47;;
78860;SDS011;68211;45.774;15.892;2023-10-09T08:13:08;17.40;;;4.40;;
78860;SDS011;68211;45.774;15.892;2023-10-09T08:15:34;12.30;;;4.25;;
78860;SDS011;68211;45.774;15.892;2023-10-09T08:18:03;9.15;;;4.28;;
78860;SDS011;68211;45.774;15.892;2023-10-09T08:20:30;8.18;;;3.90;;
78860;SDS011;68211;45.774;15.892;2023-10-09T08:22:57;10.05;;;3.85;;
78860;SDS011;68211;45.774;15.892;2023-10-09T08:25:23;13.98;;;3.97;;
78860;SDS011;68211;45.774;15.892;2023-10-09T08:27:50;12.43;;;4.65;;
78860;SDS011;68211;45.774;15.892;2023-10-09T08:30:16;10.85;;;4.03;;
78860;SDS011;68211;45.774;15.892;2023-10-09T08:32:43;13.98;;;4.03;;
78860;SDS011;68211;45.774;15.892;2023-10-09T08:35:14;7.55;;;3.85;;
78860;SDS011;68211;45.774;15.892;2023-10-09T08:37:40;11.38;;;3.67;;
78860;SDS011;68211;45.774;15.892;2023-10-09T08:40:07;6.95;;;3.10;;
78860;SDS011;68211;45.774;15.892;2023-10-09T08:42:34;6.22;;;3.13;;
78860;SDS011;68211;45.774;15.892;2023-10-09T08:45:01;10.63;;;3.60;;
78860;SDS011;68211;45.774;15.892;2023-10-09T08:47:29;10.20;;;3.35;;
78860;SDS011;68211;45.774;15.892;2023-10-09T08:49:55;10.20;;;3.40;;
78860;SDS011;68211;45.774;15.892;2023-10-09T08:52:24;7.55;;;3.45;;
78860;SDS011;68211;45.774;15.892;2023-10-09T08:54:50;8.48;;;2.95;;
78860;SDS011;68211;45.774;15.892;2023-10-09T08:57:17;11.43;;;3.58;;
78860;SDS011;68211;45.774;15.892;2023-10-09T08:59:43;11.10;;;3.78;;
78860;SDS011;68211;45.774;15.892;2023-10-09T09:02:13;15.18;;;3.50;;
78860;SDS011;68211;45.774;15.892;2023-10-09T09:04:40;11.02;;;3.35;;
78860;SDS011;68211;45.774;15.892;2023-10-09T09:07:22;7.38;;;3.20;;
78860;SDS011;68211;45.774;15.892;2023-10-09T09:09:55;11.95;;;4.00;;
78860;SDS011;68211;45.774;15.892;2023-10-09T09:12:21;16.15;;;7.05;;
78860;SDS011;68211;45.774;15.892;2023-10-09T09:14:48;9.50;;;3.92;;
78860;SDS011;68211;45.774;15.892;2023-10-09T09:17:14;7.88;;;3.38;;
78860;SDS011;68211;45.774;15.892;2023-10-09T09:19:48;6.30;;;3.08;;
78860;SDS011;68211;45.774;15.892;2023-10-09T09:22:15;8.07;;;3.17;;
78860;SDS011;68211;45.774;15.892;2023-10-09T09:24:41;5.90;;;2.75;;
78860;SDS011;68211;45.774;15.892;2023-10-09T09:27:09;12.50;;;3.22;;
78860;SDS011;68211;45.774;15.892;2023-10-09T09:29:39;8.88;;;3.28;;
78860;SDS011;68211;45.774;15.892;2023-10-09T09:32:06;6.93;;;2.58;;
78860;SDS011;68211;45.774;15.892;2023-10-09T09:34:36;7.25;;;2.85;;
78860;SDS011;68211;45.774;15.892;2023-10-09T09:37:14;9.07;;;3.00;;
78860;SDS011;68211;45.774;15.892;2023-10-09T09:39:44;4.95;;;2.63;;
78860;SDS011;68211;45.774;15.892;2023-10-09T09:42:22;6.40;;;3.03;;
78860;SDS011;68211;45.774;15.892;2023-10-09T09:44:49;7.72;;;2.63;;
78860;SDS011;68211;45.774;15.892;2023-10-09T09:47:15;7.25;;;3.10;;
78860;SDS011;68211;45.774;15.892;2023-10-09T09:49:43;9.13;;;2.67;;
78860;SDS011;68211;45.774;15.892;2023-10-09T09:52:10;6.00;;;2.40;;
78860;SDS011;68211;45.774;15.892;2023-10-09T09:54:36;6.95;;;3.13;;
78860;SDS011;68211;45.774;15.892;2023-10-09T09:57:03;6.15;;;2.70;;
78860;SDS011;68211;45.774;15.892;2023-10-09T09:59:31;6.68;;;3.13;;
78860;SDS011;68211;45.774;15.892;2023-10-09T10:01:58;11.35;;;2.95;;
78860;SDS011;68211;45.774;15.892;2023-10-09T10:04:26;5.93;;;2.50;;
78860;SDS011;68211;45.774;15.892;2023-10-09T10:06:54;7.05;;;2.83;;
78860;SDS011;68211;45.774;15.892;2023-10-09T10:09:36;11.30;;;3.00;;
78860;SDS011;68211;45.774;15.892;2023-10-09T10:12:02;9.00;;;2.47;;
78860;SDS011;68211;45.774;15.892;2023-10-09T10:14:29;7.40;;;2.53;;
78860;SDS011;68211;45.774;15.892;2023-10-09T10:17:17;4.28;;;2.30;;
78860;SDS011;68211;45.774;15.892;2023-10-09T10:20:05;11.45;;;2.80;;
78860;SDS011;68211;45.774;15.892;2023-10-09T10:22:31;13.65;;;3.38;;
78860;SDS011;68211;45.774;15.892;2023-10-09T10:24:58;2.70;;;2.05;;
78860;SDS011;68211;45.774;15.892;2023-10-09T10:27:25;8.88;;;3.22;;
78860;SDS011;68211;45.774;15.892;2023-10-09T10:35:20;7.90;;;2.90;;
78860;SDS011;68211;45.774;15.892;2023-10-09T10:37:47;5.80;;;3.28;;
78860;SDS011;68211;45.774;15.892;2023-10-09T10:40:13;6.07;;;2.92;;
78860;SDS011;68211;45.774;15.892;2023-10-09T10:42:48;6.90;;;3.03;;
78860;SDS011;68211;45.774;15.892;2023-10-09T10:45:17;13.23;;;3.40;;
78860;SDS011;68211;45.774;15.892;2023-10-09T10:47:43;10.70;;;3.17;;
78860;SDS011;68211;45.774;15.892;2023-10-09T10:50:10;15.75;;;3.20;;
78860;SDS011;68211;45.774;15.892;2023-10-09T10:52:38;7.43;;;2.78;;
78860;SDS011;68211;45.774;15.892;2023-10-09T10:55:14;4.80;;;3.10;;
78860;SDS011;68211;45.774;15.892;2023-10-09T10:57:40;12.65;;;2.90;;
78860;SDS011;68211;45.774;15.892;2023-10-09T11:00:10;6.22;;;2.90;;
78860;SDS011;68211;45.774;15.892;2023-10-09T11:02:36;14.55;;;2.90;;
78860;SDS011;68211;45.774;15.892;2023-10-09T11:05:03;9.38;;;3.70;;
78860;SDS011;68211;45.774;15.892;2023-10-09T11:07:31;5.00;;;2.80;;
78860;SDS011;68211;45.774;15.892;2023-10-09T11:09:59;10.68;;;3.70;;
78860;SDS011;68211;45.774;15.892;2023-10-09T11:12:26;7.55;;;3.88;;
78860;SDS011;68211;45.774;15.892;2023-10-09T11:14:53;13.02;;;3.63;;
78860;SDS011;68211;45.774;15.892;2023-10-09T11:17:19;10.52;;;3.55;;
78860;SDS011;68211;45.774;15.892;2023-10-09T11:19:46;14.32;;;4.50;;
78860;SDS011;68211;45.774;15.892;2023-10-09T11:22:13;7.15;;;3.70;;
78860;SDS011;68211;45.774;15.892;2023-10-09T11:24:39;5.85;;;3.10;;
78860;SDS011;68211;45.774;15.892;2023-10-09T11:27:07;6.25;;;3.53;;
78860;SDS011;68211;45.774;15.892;2023-10-09T11:29:34;9.35;;;3.42;;
78860;SDS011;68211;45.774;15.892;2023-10-09T11:32:01;14.43;;;3.30;;
78860;SDS011;68211;45.774;15.892;2023-10-09T11:34:28;10.70;;;3.60;;
78860;SDS011;68211;45.774;15.892;2023-10-09T11:36:56;8.55;;;3.55;;
78860;SDS011;68211;45.774;15.892;2023-10-09T11:39:26;14.70;;;3.45;;
78860;SDS011;68211;45.774;15.892;2023-10-09T11:41:59;8.05;;;2.90;;
78860;SDS011;68211;45.774;15.892;2023-10-09T11:44:35;10.18;;;3.05;;
78860;SDS011;68211;45.774;15.892;2023-10-09T11:47:01;6.40;;;2.78;;
78860;SDS011;68211;45.774;15.892;2023-10-09T11:49:28;5.68;;;2.70;;
78860;SDS011;68211;45.774;15.892;2023-10-09T11:52:04;8.95;;;2.70;;
78860;SDS011;68211;45.774;15.892;2023-10-09T11:54:31;11.30;;;4.10;;
78860;SDS011;68211;45.774;15.892;2023-10-09T11:56:58;13.65;;;3.50;;
78860;SDS011;68211;45.774;15.892;2023-10-09T11:59:24;9.60;;;3.28;;
78860;SDS011;68211;45.774;15.892;2023-10-09T12:01:52;10.80;;;3.20;;
78860;SDS011;68211;45.774;15.892;2023-10-09T12:04:18;7.05;;;3.53;;
78860;SDS011;68211;45.774;15.892;2023-10-09T12:06:45;10.18;;;3.03;;
78860;SDS011;68211;45.774;15.892;2023-10-09T12:09:11;8.57;;;3.40;;
78860;SDS011;68211;45.774;15.892;2023-10-09T12:11:38;12.73;;;3.60;;
78860;SDS011;68211;45.774;15.892;2023-10-09T12:14:24;12.70;;;3.63;;
78860;SDS011;68211;45.774;15.892;2023-10-09T12:16:52;8.15;;;4.32;;
78860;SDS011;68211;45.774;15.892;2023-10-09T12:19:19;12.48;;;3.80;;
78860;SDS011;68211;45.774;15.892;2023-10-09T12:21:45;10.50;;;4.10;;
78860;SDS011;68211;45.774;15.892;2023-10-09T12:24:12;12.77;;;4.75;;
78860;SDS011;68211;45.774;15.892;2023-10-09T12:26:38;8.02;;;4.40;;
78860;SDS011;68211;45.774;15.892;2023-10-09T12:29:05;8.27;;;4.10;;
78860;SDS011;68211;45.774;15.892;2023-10-09T12:31:31;8.23;;;4.15;;
78860;SDS011;68211;45.774;15.892;2023-10-09T12:33:59;11.32;;;4.28;;
78860;SDS011;68211;45.774;15.892;2023-10-09T12:36:26;11.25;;;3.95;;
78860;SDS011;68211;45.774;15.892;2023-10-09T12:38:52;9.98;;;4.60;;
78860;SDS011;68211;45.774;15.892;2023-10-09T12:41:19;9.57;;;4.32;;
78860;SDS011;68211;45.774;15.892;2023-10-09T12:43:45;16.08;;;3.75;;
78860;SDS011;68211;45.774;15.892;2023-10-09T12:46:12;9.93;;;4.88;;
78860;SDS011;68211;45.774;15.892;2023-10-09T12:48:38;10.77;;;4.82;;
78860;SDS011;68211;45.774;15.892;2023-10-09T12:51:06;8.77;;;4.40;;
78860;SDS011;68211;45.774;15.892;2023-10-09T12:53:33;7.90;;;4.63;;
78860;SDS011;68211;45.774;15.892;2023-10-09T12:55:59;8.07;;;4.35;;
78860;SDS011;68211;45.774;15.892;2023-10-09T12:58:26;8.48;;;4.25;;
78860;SDS011;68211;45.774;15.892;2023-10-09T13:00:52;10.75;;;3.88;;
78860;SDS011;68211;45.774;15.892;2023-10-09T13:03:19;9.07;;;3.45;;
78860;SDS011;68211;45.774;15.892;2023-10-09T13:05:46;7.57;;;3.40;;
78860;SDS011;68211;45.774;15.892;2023-10-09T13:08:14;10.77;;;4.10;;
78860;SDS011;68211;45.774;15.892;2023-10-09T13:10:41;14.82;;;4.35;;
78860;SDS011;68211;45.774;15.892;2023-10-09T13:13:07;10.23;;;4.60;;
78860;SDS011;68211;45.774;15.892;2023-10-09T13:15:34;11.43;;;4.35;;
78860;SDS011;68211;45.774;15.892;2023-10-09T13:18:00;11.10;;;3.95;;
78860;SDS011;68211;45.774;15.892;2023-10-09T13:20:27;9.27;;;4.35;;
78860;SDS011;68211;45.774;15.892;2023-10-09T13:22:53;9.05;;;3.97;;
78860;SDS011;68211;45.774;15.892;2023-10-09T13:25:21;8.15;;;3.67;;
78860;SDS011;68211;45.774;15.892;2023-10-09T13:28:00;16.10;;;4.30;;
78860;SDS011;68211;45.774;15.892;2023-10-09T13:30:27;10.13;;;3.97;;
78860;SDS011;68211;45.774;15.892;2023-10-09T13:32:53;11.73;;;4.13;;
78860;SDS011;68211;45.774;15.892;2023-10-09T13:35:19;11.00;;;4.50;;
78860;SDS011;68211;45.774;15.892;2023-10-09T13:37:46;9.40;;;4.35;;
78860;SDS011;68211;45.774;15.892;2023-10-09T13:40:13;12.18;;;4.18;;
78860;SDS011;68211;45.774;15.892;2023-10-09T13:42:41;9.70;;;4.60;;
78860;SDS011;68211;45.774;15.892;2023-10-09T13:45:08;12.98;;;4.28;;
78860;SDS011;68211;45.774;15.892;2023-10-09T13:47:34;14.13;;;4.50;;
78860;SDS011;68211;45.774;15.892;2023-10-09T13:50:01;13.65;;;4.25;;
78860;SDS011;68211;45.774;15.892;2023-10-09T13:52:27;19.00;;;5.22;;
78860;SDS011;68211;45.774;15.892;2023-10-09T13:54:54;10.35;;;4.60;;
78860;SDS011;68211;45.774;15.892;2023-10-09T13:57:20;12.30;;;4.63;;
78860;SDS011;68211;45.774;15.892;2023-10-09T13:59:48;10.10;;;5.40;;
78860;SDS011;68211;45.774;15.892;2023-10-09T14:02:15;16.02;;;6.28;;
78860;SDS011;68211;45.774;15.892;2023-10-09T14:04:41;15.73;;;5.50;;
78860;SDS011;68211;45.774;15.892;2023-10-09T14:07:08;13.88;;;6.47;;
78860;SDS011;68211;45.774;15.892;2023-10-09T14:09:34;15.15;;;6.57;;
78860;SDS011;68211;45.774;15.892;2023-10-09T14:12:01;8.10;;;4.72;;
78860;SDS011;68211;45.774;15.892;2023-10-09T14:14:28;15.63;;;5.65;;
78860;SDS011;68211;45.774;15.892;2023-10-09T14:16:55;10.40;;;5.05;;
78860;SDS011;68211;45.774;15.892;2023-10-09T14:19:22;19.05;;;6.00;;
78860;SDS011;68211;45.774;15.892;2023-10-09T14:21:48;21.65;;;5.78;;
78860;SDS011;68211;45.774;15.892;2023-10-09T14:24:15;16.38;;;5.15;;
78860;SDS011;68211;45.774;15.892;2023-10-09T14:26:45;10.95;;;4.95;;
78860;SDS011;68211;45.774;15.892;2023-10-09T14:29:11;13.18;;;4.53;;
78860;SDS011;68211;45.774;15.892;2023-10-09T14:31:38;19.40;;;5.22;;
78860;SDS011;68211;45.774;15.892;2023-10-09T14:34:06;13.25;;;4.40;;
78860;SDS011;68211;45.774;15.892;2023-10-09T14:36:33;12.00;;;4.65;;
78860;SDS011;68211;45.774;15.892;2023-10-09T14:39:00;15.60;;;4.65;;
78860;SDS011;68211;45.774;15.892;2023-10-09T14:41:26;12.40;;;4.65;;